createdAt,value
2019-01-25T00:01:38.317Z,86.74
2019-01-25T00:04:45.009Z,86.74
2019-01-25T00:07:51.892Z,86.86
2019-01-25T00:10:59.262Z,86.67
2019-01-25T00:14:06.501Z,86.76
2019-01-25T00:17:13.342Z,86.49
2019-01-25T00:20:20.068Z,86.21
2019-01-25T00:23:26.798Z,86.35
2019-01-25T00:26:33.451Z,86.40
2019-01-25T00:29:41.972Z,86.41
2019-01-25T00:32:49.475Z,86.53
2019-01-25T00:35:56.031Z,86.47
2019-01-25T00:39:04.487Z,86.32
2019-01-25T00:42:11.223Z,86.78
2019-01-25T00:45:18.284Z,86.79
2019-01-25T00:48:25.165Z,86.73
2019-01-25T00:51:36.447Z,86.53
2019-01-25T00:54:43.463Z,86.32
2019-01-25T00:57:50.172Z,86.45
2019-01-25T01:00:56.711Z,86.67
2019-01-25T01:04:03.382Z,86.64
2019-01-25T01:07:10.199Z,86.71
2019-01-25T01:10:17.210Z,86.75
2019-01-25T01:13:24.080Z,86.59
2019-01-25T01:16:31.711Z,86.70
2019-01-25T01:19:38.386Z,86.71
2019-01-25T01:22:45.757Z,86.90
2019-01-25T01:25:52.567Z,87.04
2019-01-25T01:28:59.515Z,86.95
2019-01-25T01:32:06.230Z,86.64
2019-01-25T01:35:13.638Z,86.37
2019-01-25T01:38:20.754Z,86.36
2019-01-25T01:41:27.316Z,86.18
2019-01-25T01:44:34.527Z,86.44
2019-01-25T01:47:41.086Z,86.95
2019-01-25T01:50:48.477Z,87.29
2019-01-25T01:53:55.321Z,86.84
2019-01-25T01:57:01.924Z,86.76
2019-01-25T02:00:13.315Z,86.88
2019-01-25T02:03:19.872Z,87.05
2019-01-25T02:06:26.880Z,86.95
2019-01-25T02:09:33.262Z,86.65
2019-01-25T02:12:41.082Z,86.28
2019-01-25T02:15:48.037Z,86.15
2019-01-25T02:18:54.840Z,86.57
2019-01-25T02:22:01.267Z,86.92
2019-01-25T02:25:07.913Z,86.87
2019-01-25T02:28:14.730Z,86.79
2019-01-25T02:31:21.415Z,86.84
2019-01-25T02:34:27.777Z,86.28
2019-01-25T02:37:34.790Z,86.37
2019-01-25T02:40:41.519Z,86.49
2019-01-25T02:43:48.075Z,86.02
2019-01-25T02:46:54.812Z,86.20
2019-01-25T02:50:01.409Z,86.48
2019-01-25T02:53:07.816Z,86.63
2019-01-25T02:56:14.699Z,86.90
2019-01-25T02:59:21.539Z,87.17
2019-01-25T03:02:28.441Z,87.28
2019-01-25T03:05:35.082Z,87.26
2019-01-25T03:08:41.665Z,86.56
2019-01-25T03:11:48.418Z,86.19
2019-01-25T03:14:54.989Z,86.43
2019-01-25T03:18:01.534Z,86.71
2019-01-25T03:21:10.025Z,86.98
2019-01-25T03:24:16.668Z,87.01
2019-01-25T03:27:23.797Z,87.27
2019-01-25T03:30:31.424Z,87.24
2019-01-25T03:33:38.402Z,87.21
2019-01-25T03:36:45.057Z,87.29
2019-01-25T03:39:51.651Z,87.17
2019-01-25T03:42:58.340Z,86.94
2019-01-25T03:46:04.983Z,86.91
2019-01-25T03:49:12.422Z,86.66
2019-01-25T03:52:19.067Z,86.14
2019-01-25T03:55:25.961Z,86.33
2019-01-25T03:58:32.625Z,86.82
2019-01-25T04:01:39.775Z,87.19
2019-01-25T04:04:46.742Z,87.33
2019-01-25T04:07:53.434Z,87.48
2019-01-25T04:11:03.923Z,87.48
2019-01-25T04:14:08.374Z,87.45
2019-01-25T04:17:14.739Z,87.14
2019-01-25T04:20:21.516Z,86.00
2019-01-25T04:23:28.470Z,85.95
2019-01-25T04:26:35.223Z,86.15
2019-01-25T04:29:41.977Z,86.40
2019-01-25T04:32:48.784Z,86.75
2019-01-25T04:35:55.183Z,86.78
2019-01-25T04:39:01.997Z,86.91
2019-01-25T04:42:09.859Z,87.17
2019-01-25T04:45:17.993Z,87.32
2019-01-25T04:48:24.846Z,87.46
2019-01-25T04:51:31.491Z,87.35
2019-01-25T04:54:38.240Z,86.99
2019-01-25T04:57:44.667Z,86.47
2019-01-25T05:00:51.203Z,86.49
2019-01-25T05:03:57.924Z,86.61
2019-01-25T05:07:05.483Z,86.63
2019-01-25T05:10:12.387Z,86.86
2019-01-25T05:13:19.715Z,86.43
2019-01-25T05:16:26.176Z,86.54
2019-01-25T05:19:39.183Z,86.54
2019-01-25T05:22:45.923Z,86.56
2019-01-25T05:25:52.750Z,86.58
2019-01-25T05:28:59.619Z,86.34
2019-01-25T05:32:07.150Z,86.37
2019-01-25T05:35:14.156Z,86.17
2019-01-25T05:38:20.932Z,86.46
2019-01-25T05:41:28.760Z,86.67
2019-01-25T05:44:35.413Z,86.86
2019-01-25T05:47:42.147Z,86.98
2019-01-25T05:50:48.942Z,87.04
2019-01-25T05:53:55.513Z,86.94
2019-01-25T05:57:02.152Z,86.57
2019-01-25T06:00:13.488Z,86.40
2019-01-25T06:03:19.793Z,86.30
2019-01-25T06:06:26.074Z,86.50
2019-01-25T06:09:34.778Z,86.14
2019-01-25T06:12:45.827Z,85.94
2019-01-25T06:15:52.959Z,85.92
2019-01-25T06:18:59.679Z,86.18
2019-01-25T06:22:06.928Z,85.98
2019-01-25T06:25:13.916Z,86.14
2019-01-25T06:28:20.428Z,86.58
2019-01-25T06:31:27.291Z,86.85
2019-01-25T06:34:33.663Z,86.79
2019-01-25T06:37:40.539Z,86.30
2019-01-25T06:40:47.277Z,86.34
2019-01-25T06:43:53.947Z,86.54
2019-01-25T06:47:00.643Z,86.66
2019-01-25T06:50:07.397Z,86.61
2019-01-25T06:53:14.269Z,86.67
2019-01-25T06:56:21.241Z,86.80
2019-01-25T06:59:35.285Z,86.38
2019-01-25T07:02:42.863Z,86.15
2019-01-25T07:05:50.029Z,86.47
2019-01-25T07:08:56.849Z,86.78
2019-01-25T07:12:03.331Z,86.76
2019-01-25T07:15:11.120Z,86.00
2019-01-25T07:18:18.063Z,86.06
2019-01-25T07:21:24.854Z,85.80
2019-01-25T07:24:32.100Z,85.72
2019-01-25T07:27:39.385Z,85.89
2019-01-25T07:30:46.405Z,86.08
2019-01-25T07:33:53.149Z,86.02
2019-01-25T07:36:59.677Z,85.66
2019-01-25T07:40:06.811Z,85.33
2019-01-25T07:43:13.869Z,85.59
2019-01-25T07:46:21.020Z,85.81
2019-01-25T07:49:27.540Z,85.57
2019-01-25T07:52:34.357Z,85.08
2019-01-25T07:55:41.057Z,84.62
2019-01-25T07:58:48.077Z,84.72
2019-01-25T08:01:56.069Z,84.80
2019-01-25T08:05:03.115Z,84.69
2019-01-25T08:08:09.909Z,84.60
2019-01-25T08:11:16.514Z,84.34
2019-01-25T08:14:23.353Z,84.20
2019-01-25T08:17:32.065Z,84.30
2019-01-25T08:20:38.580Z,83.86
2019-01-25T08:23:45.405Z,84.17
2019-01-25T08:26:51.803Z,84.31
2019-01-25T08:29:58.507Z,83.82
2019-01-25T08:33:05.532Z,82.88
2019-01-25T08:36:12.462Z,82.95
2019-01-25T08:39:19.154Z,83.02
2019-01-25T08:42:25.860Z,82.81
2019-01-25T08:45:32.887Z,82.26
2019-01-25T08:48:39.565Z,82.00
2019-01-25T08:51:46.795Z,81.86
2019-01-25T08:54:53.172Z,81.94
2019-01-25T08:58:00.111Z,82.03
2019-01-25T09:01:08.290Z,82.01
2019-01-25T09:04:14.643Z,81.63
2019-01-25T09:07:21.503Z,81.36
2019-01-25T09:10:28.206Z,81.50
2019-01-25T09:13:35.327Z,80.67
2019-01-25T09:16:42.495Z,81.20
2019-01-25T09:19:48.874Z,80.75
2019-01-25T09:22:55.831Z,80.99
2019-01-25T09:26:03.134Z,80.96
2019-01-25T09:29:09.664Z,81.07
2019-01-25T09:32:16.983Z,80.54
2019-01-25T09:35:24.735Z,80.11
2019-01-25T09:38:31.564Z,80.19
2019-01-25T09:41:39.562Z,80.45
2019-01-25T09:44:46.361Z,80.41
2019-01-25T09:47:53.606Z,79.96
2019-01-25T09:51:00.642Z,79.81
2019-01-25T09:54:08.154Z,79.24
2019-01-25T09:57:15.013Z,78.97
2019-01-25T10:00:33.740Z,78.70
2019-01-25T10:03:41.137Z,78.25
2019-01-25T10:06:47.866Z,77.89
2019-01-25T10:09:54.694Z,78.38
2019-01-25T10:13:01.282Z,78.12
2019-01-25T10:16:08.267Z,74.75
2019-01-25T10:19:14.963Z,74.75
2019-01-25T10:22:21.537Z,75.00
2019-01-25T10:25:29.737Z,73.82
2019-01-25T10:28:36.860Z,73.59
2019-01-25T10:31:43.901Z,73.57
2019-01-25T10:34:50.407Z,73.33
2019-01-25T10:37:57.698Z,74.05
2019-01-25T10:41:04.438Z,73.29
2019-01-25T10:44:10.807Z,73.30
2019-01-25T10:47:17.753Z,73.07
2019-01-25T10:50:25.420Z,73.92
2019-01-25T10:53:32.278Z,73.76
2019-01-25T10:56:41.912Z,73.59
2019-01-25T10:59:48.067Z,73.00
2019-01-25T11:02:58.403Z,73.51
2019-01-25T11:06:03.090Z,73.75
2019-01-25T11:09:10.402Z,73.23
2019-01-25T11:12:17.708Z,73.11
2019-01-25T11:15:24.410Z,73.14
2019-01-25T11:18:30.780Z,72.71
2019-01-25T11:21:39.045Z,73.02
2019-01-25T11:24:45.470Z,72.00
2019-01-25T11:27:51.859Z,71.60
2019-01-25T11:30:58.789Z,71.54
2019-01-25T11:34:05.456Z,71.65
2019-01-25T11:37:13.340Z,72.38
2019-01-25T11:40:22.680Z,72.96
2019-01-25T11:43:29.606Z,72.39
2019-01-25T11:46:37.140Z,71.52
2019-01-25T11:49:45.026Z,70.93
2019-01-25T11:52:51.666Z,70.81
2019-01-25T11:55:58.258Z,71.60
2019-01-25T11:59:05.171Z,71.00
2019-01-25T12:02:13.415Z,70.61
2019-01-25T12:05:21.229Z,71.63
2019-01-25T12:08:27.923Z,71.33
2019-01-25T12:11:34.936Z,70.32
2019-01-25T12:14:42.524Z,70.35
2019-01-25T12:17:49.132Z,70.07
2019-01-25T12:20:56.613Z,68.75
2019-01-25T12:24:03.543Z,68.53
2019-01-25T12:27:10.280Z,68.24
2019-01-25T12:30:20.618Z,69.08
2019-01-25T12:33:28.081Z,69.15
2019-01-25T12:36:35.451Z,68.85
2019-01-25T12:39:42.567Z,68.92
2019-01-25T12:42:49.074Z,69.32
2019-01-25T12:45:55.676Z,68.06
2019-01-25T12:49:02.151Z,68.45
2019-01-25T12:52:10.824Z,67.59
2019-01-25T12:55:17.521Z,67.69
2019-01-25T12:58:24.536Z,68.65
2019-01-25T13:01:34.989Z,68.31
2019-01-25T13:04:39.901Z,67.59
2019-01-25T13:07:47.130Z,66.66
2019-01-25T13:10:53.722Z,67.23
2019-01-25T13:14:00.766Z,66.69
2019-01-25T13:17:07.303Z,67.43
2019-01-25T13:20:17.690Z,67.35
2019-01-25T13:23:24.522Z,67.16
2019-01-25T13:26:31.215Z,66.41
2019-01-25T13:29:38.348Z,67.29
2019-01-25T13:32:45.030Z,66.65
2019-01-25T13:35:52.142Z,67.76
2019-01-25T13:38:59.094Z,67.89
2019-01-25T13:42:06.249Z,67.41
2019-01-25T13:45:15.129Z,67.11
2019-01-25T13:48:22.238Z,67.26
2019-01-25T13:51:31.305Z,66.75
2019-01-25T13:54:38.314Z,66.70
2019-01-25T13:57:45.380Z,66.79
2019-01-25T14:00:52.201Z,67.21
2019-01-25T14:03:58.691Z,66.81
2019-01-25T14:07:04.917Z,66.65
2019-01-25T14:10:14.300Z,66.99
2019-01-25T14:13:23.359Z,66.72
2019-01-25T14:16:31.268Z,66.74
2019-01-25T14:19:38.221Z,66.39
2019-01-25T14:22:45.135Z,66.72
2019-01-25T14:25:51.994Z,67.44
2019-01-25T14:28:58.808Z,69.21
2019-01-25T14:32:05.649Z,68.07
2019-01-25T14:35:12.640Z,68.33
2019-01-25T14:38:19.704Z,68.32
2019-01-25T14:41:27.316Z,68.95
2019-01-25T14:44:34.025Z,68.36
2019-01-25T14:47:41.026Z,68.21
2019-01-25T14:50:47.654Z,68.92
2019-01-25T14:53:54.514Z,69.01
2019-01-25T14:57:01.334Z,69.07
2019-01-25T15:00:09.104Z,69.37
2019-01-25T15:03:17.294Z,70.59
2019-01-25T15:06:23.840Z,69.42
2019-01-25T15:09:31.085Z,69.23
2019-01-25T15:12:39.032Z,69.64
2019-01-25T15:15:45.873Z,70.47
2019-01-25T15:18:52.473Z,70.60
2019-01-25T15:21:59.971Z,70.55
2019-01-25T15:25:07.526Z,70.70
2019-01-25T15:28:14.442Z,71.06
2019-01-25T15:31:21.844Z,71.96
2019-01-25T15:34:28.723Z,71.92
2019-01-25T15:37:35.787Z,72.53
2019-01-25T15:40:42.516Z,72.59
2019-01-25T15:43:49.643Z,72.32
2019-01-25T15:46:57.034Z,73.03
2019-01-25T15:50:05.788Z,73.41
2019-01-25T15:53:13.363Z,73.49
2019-01-25T15:56:21.101Z,73.78
2019-01-25T15:59:27.981Z,74.15
2019-01-25T16:02:35.157Z,74.31
2019-01-25T16:05:41.932Z,74.55
2019-01-25T16:08:48.571Z,75.33
2019-01-25T16:11:55.055Z,76.78
2019-01-25T16:15:01.535Z,77.13
2019-01-25T16:18:08.200Z,76.84
2019-01-25T16:21:14.994Z,77.60
2019-01-25T16:24:22.243Z,77.25
2019-01-25T16:27:30.340Z,77.61
2019-01-25T16:30:39.116Z,77.51
2019-01-25T16:33:46.625Z,77.41
2019-01-25T16:36:55.076Z,77.23
2019-01-25T16:40:01.904Z,76.84
2019-01-25T16:43:10.998Z,77.45
2019-01-25T16:46:17.957Z,77.87
2019-01-25T16:49:24.851Z,77.52
2019-01-25T16:52:31.740Z,77.36
2019-01-25T16:55:38.536Z,77.29
2019-01-25T16:58:45.476Z,77.74
2019-01-25T17:01:53.439Z,77.79
2019-01-25T17:05:00.744Z,78.11
2019-01-25T17:08:09.271Z,78.02
2019-01-25T17:11:16.585Z,78.75
2019-01-25T17:14:23.985Z,78.82
2019-01-25T17:17:31.028Z,78.29
2019-01-25T17:20:38.528Z,78.06
2019-01-25T17:23:45.279Z,77.60
2019-01-25T17:26:52.019Z,77.16
2019-01-25T17:29:58.703Z,77.17
2019-01-25T17:33:05.912Z,76.39
2019-01-25T17:36:13.731Z,76.12
2019-01-25T17:39:22.173Z,75.96
2019-01-25T17:42:28.910Z,75.55
2019-01-25T17:45:36.059Z,75.62
2019-01-25T17:48:43.503Z,75.82
2019-01-25T17:51:51.738Z,76.11
2019-01-25T17:54:59.703Z,76.15
2019-01-25T17:58:08.276Z,76.63
2019-01-25T18:01:15.840Z,76.19
2019-01-25T18:04:23.233Z,76.33
2019-01-25T18:07:31.554Z,76.58
2019-01-25T18:10:38.898Z,76.49
2019-01-25T18:13:47.606Z,76.81
2019-01-25T18:16:55.565Z,77.04
2019-01-25T18:20:03.010Z,77.01
2019-01-25T18:23:09.719Z,77.27
2019-01-25T18:26:22.611Z,77.69
2019-01-25T18:29:51.441Z,78.19
2019-01-25T18:32:59.751Z,77.54
2019-01-25T18:36:06.949Z,77.83
2019-01-25T18:39:15.366Z,78.02
2019-01-25T18:42:24.510Z,78.04
2019-01-25T18:45:31.512Z,77.66
2019-01-25T18:48:38.956Z,77.89
2019-01-25T18:51:46.362Z,77.88
2019-01-25T18:54:52.881Z,78.13
2019-01-25T18:57:59.645Z,78.74
2019-01-25T19:01:06.385Z,78.95
2019-01-25T19:04:12.970Z,79.00
2019-01-25T19:07:19.693Z,78.62
2019-01-25T19:10:27.145Z,78.36
2019-01-25T19:13:34.405Z,78.28
2019-01-25T19:16:42.074Z,77.81
2019-01-25T19:19:49.489Z,78.07
2019-01-25T19:22:56.184Z,77.92
2019-01-25T19:26:02.862Z,77.86
2019-01-25T19:29:10.194Z,77.46
2019-01-25T19:32:16.649Z,77.23
2019-01-25T19:35:24.406Z,77.61
2019-01-25T19:38:31.267Z,77.44
2019-01-25T19:41:40.831Z,77.90
2019-01-25T19:44:48.219Z,78.39
2019-01-25T19:47:55.439Z,78.92
2019-01-25T19:51:02.528Z,78.89
2019-01-25T19:54:09.319Z,79.35
2019-01-25T19:57:15.878Z,79.67
2019-01-25T20:00:28.614Z,80.09
2019-01-25T20:03:35.351Z,80.05
2019-01-25T20:06:42.279Z,79.77
2019-01-25T20:09:49.667Z,79.60
2019-01-25T20:12:57.966Z,79.98
2019-01-25T20:16:06.672Z,80.20
2019-01-25T20:19:13.781Z,80.51
2019-01-25T20:22:20.475Z,80.66
2019-01-25T20:25:29.478Z,80.59
2019-01-25T20:28:37.902Z,80.72
2019-01-25T20:31:45.874Z,80.94
2019-01-25T20:34:52.491Z,81.26
2019-01-25T20:38:01.744Z,81.13
2019-01-25T20:41:09.455Z,81.63
2019-01-25T20:44:16.300Z,81.49
2019-01-25T20:47:23.059Z,81.49
2019-01-25T20:50:31.756Z,81.10
2019-01-25T20:53:38.407Z,81.35
2019-01-25T20:56:45.229Z,80.97
2019-01-25T20:59:51.973Z,81.22
2019-01-25T21:02:58.708Z,80.80
2019-01-25T21:06:05.651Z,80.73
2019-01-25T21:09:13.086Z,80.49
2019-01-25T21:12:20.262Z,80.69
2019-01-25T21:15:34.813Z,79.90
2019-01-25T21:18:36.262Z,79.79
2019-01-25T21:21:43.688Z,79.48
2019-01-25T21:24:50.922Z,79.46
2019-01-25T21:27:57.777Z,79.29
2019-01-25T21:31:04.130Z,79.47
2019-01-25T21:34:11.286Z,79.92
2019-01-25T21:37:18.247Z,80.29
2019-01-25T21:40:27.031Z,79.63
2019-01-25T21:43:33.523Z,78.83
2019-01-25T21:46:40.908Z,78.99
2019-01-25T21:49:48.042Z,77.95
2019-01-25T21:52:54.590Z,78.75
2019-01-25T21:56:01.066Z,78.30
2019-01-25T21:59:08.373Z,79.24
2019-01-25T22:02:14.925Z,78.84
2019-01-25T22:05:22.254Z,78.60
2019-01-25T22:08:29.297Z,78.39
2019-01-25T22:11:37.568Z,78.62
2019-01-25T22:14:45.378Z,78.02
2019-01-25T22:17:52.534Z,78.29
2019-01-25T22:20:59.249Z,78.66
2019-01-25T22:24:06.551Z,77.87
2019-01-25T22:27:15.225Z,77.77
2019-01-25T22:30:23.171Z,78.59
2019-01-25T22:33:29.848Z,78.53
2019-01-25T22:36:40.420Z,78.23
2019-01-25T22:39:48.449Z,78.96
2019-01-25T22:42:55.965Z,79.34
2019-01-25T22:46:02.858Z,79.42
2019-01-25T22:49:10.234Z,79.28
2019-01-25T22:52:16.847Z,79.90
2019-01-25T22:55:30.114Z,79.90
2019-01-25T22:58:36.915Z,79.50
2019-01-25T23:01:44.013Z,79.27
2019-01-25T23:05:25.137Z,79.38
2019-01-25T23:08:31.768Z,79.75
2019-01-25T23:11:39.216Z,79.50
2019-01-25T23:14:46.221Z,79.54
2019-01-25T23:17:52.739Z,79.81
2019-01-25T23:20:59.547Z,80.03
2019-01-25T23:24:06.333Z,79.81
2019-01-25T23:27:14.184Z,79.69
2019-01-25T23:30:20.675Z,79.43
2019-01-25T23:33:28.145Z,79.25
2019-01-25T23:36:36.186Z,78.75
2019-01-25T23:39:42.492Z,78.25
2019-01-25T23:42:49.027Z,78.46
2019-01-25T23:45:55.838Z,77.60
2019-01-25T23:49:02.423Z,77.81
2019-01-25T23:52:09.325Z,77.85
2019-01-25T23:55:16.204Z,77.30
2019-01-25T23:58:23.534Z,77.38
